createdAt,value
2023-05-14T00:02:27.970Z,98127.19
2023-05-14T00:04:55.949Z,98126.27
2023-05-14T00:07:24.013Z,98120.42
2023-05-14T00:09:51.896Z,98118.14
2023-05-14T00:12:20.035Z,98120.69
2023-05-14T00:14:47.902Z,98118.73
2023-05-14T00:17:15.884Z,98117.63
2023-05-14T00:19:44.055Z,98116.05
2023-05-14T00:22:12.095Z,98119.68
2023-05-14T00:24:40.110Z,98120.60
2023-05-14T00:27:08.640Z,98114.98
2023-05-14T00:29:36.650Z,98113.31
2023-05-14T00:32:04.895Z,98113.77
2023-05-14T00:34:32.952Z,98109.98
2023-05-14T00:37:01.203Z,98110.31
2023-05-14T00:39:29.126Z,98111.22
2023-05-14T00:41:56.956Z,98113.73
2023-05-14T00:44:25.085Z,98110.66
2023-05-14T00:46:53.379Z,98111.29
2023-05-14T00:49:21.825Z,98112.70
2023-05-14T00:51:50.144Z,98113.73
2023-05-14T00:54:18.239Z,98108.85
2023-05-14T00:56:46.948Z,98102.67
2023-05-14T00:59:14.994Z,98103.80
2023-05-14T01:01:43.002Z,98102.14
2023-05-14T01:04:11.886Z,98109.28
2023-05-14T01:06:39.714Z,98109.06
2023-05-14T01:09:18.999Z,98110.73
2023-05-14T01:12:00.996Z,98108.41
2023-05-14T01:14:47.592Z,98107.42
2023-05-14T01:17:16.147Z,98110.99
2023-05-14T01:19:45.479Z,98113.57
2023-05-14T01:22:13.515Z,98118.58
2023-05-14T01:24:41.708Z,98117.71
2023-05-14T01:27:18.901Z,98111.45
2023-05-14T01:29:53.521Z,98109.44
2023-05-14T01:32:24.790Z,98105.41
2023-05-14T01:34:53.729Z,98103.92
2023-05-14T01:37:22.747Z,98104.64
2023-05-14T01:39:52.022Z,98103.70
2023-05-14T01:42:20.946Z,98106.83
2023-05-14T01:44:48.973Z,98103.27
2023-05-14T01:47:17.082Z,98104.81
2023-05-14T01:49:45.157Z,98103.90
2023-05-14T01:52:13.222Z,98099.29
2023-05-14T01:54:41.182Z,98094.31
2023-05-14T01:57:09.147Z,98095.07
2023-05-14T01:59:37.121Z,98092.77
2023-05-14T02:02:05.292Z,98089.15
2023-05-14T02:04:33.264Z,98091.54
2023-05-14T02:07:01.256Z,98091.16
2023-05-14T02:09:30.743Z,98088.79
2023-05-14T02:11:59.531Z,98092.52
2023-05-14T02:14:27.798Z,98094.98
2023-05-14T02:16:56.383Z,98091.36
2023-05-14T02:19:24.545Z,98089.89
2023-05-14T02:21:52.508Z,98093.52
2023-05-14T02:24:21.247Z,98091.14
2023-05-14T02:26:49.595Z,98084.56
2023-05-14T02:29:17.562Z,98083.45
2023-05-14T02:31:45.535Z,98084.14
2023-05-14T02:34:13.509Z,98083.59
2023-05-14T02:36:41.413Z,98084.95
2023-05-14T02:39:09.328Z,98087.80
2023-05-14T02:41:37.608Z,98085.59
2023-05-14T02:44:05.670Z,98088.53
2023-05-14T02:46:33.720Z,98092.53
2023-05-14T02:49:03.366Z,98091.41
2023-05-14T02:51:31.309Z,98091.43
2023-05-14T02:53:59.591Z,98091.17
2023-05-14T02:56:27.657Z,98089.90
2023-05-14T02:58:55.741Z,98086.52
2023-05-14T03:01:24.299Z,98082.79
2023-05-14T03:03:52.802Z,98081.73
2023-05-14T03:06:20.773Z,98083.58
2023-05-14T03:08:48.643Z,98086.00
2023-05-14T03:11:16.486Z,98081.27
2023-05-14T03:13:44.561Z,98084.90
2023-05-14T03:16:13.139Z,98091.11
2023-05-14T03:18:41.266Z,98088.63
2023-05-14T03:21:10.323Z,98086.20
2023-05-14T03:23:38.493Z,98085.58
2023-05-14T03:26:06.489Z,98087.23
2023-05-14T03:28:34.528Z,98086.08
2023-05-14T03:31:03.089Z,98085.73
2023-05-14T03:33:31.491Z,98080.89
2023-05-14T03:35:59.325Z,98077.46
2023-05-14T03:38:27.293Z,98078.77
2023-05-14T03:40:55.188Z,98078.45
2023-05-14T03:43:23.155Z,98074.36
2023-05-14T03:45:52.854Z,98072.69
2023-05-14T03:48:21.376Z,98077.55
2023-05-14T03:50:49.307Z,98076.60
2023-05-14T03:53:17.309Z,98073.29
2023-05-14T03:55:46.793Z,98072.38
2023-05-14T03:58:14.781Z,98074.50
2023-05-14T04:00:43.655Z,98081.54
2023-05-14T04:03:12.044Z,98080.98
2023-05-14T04:05:40.084Z,98079.46
2023-05-14T04:08:07.953Z,98081.80
2023-05-14T04:10:36.070Z,98084.32
2023-05-14T04:13:03.790Z,98086.75
2023-05-14T04:15:35.868Z,98084.83
2023-05-14T04:18:04.175Z,98086.15
2023-05-14T04:20:32.212Z,98084.14
2023-05-14T04:23:00.375Z,98082.65
2023-05-14T04:25:28.350Z,98087.76
2023-05-14T04:27:56.093Z,98083.87
2023-05-14T04:30:24.460Z,98085.11
2023-05-14T04:32:52.584Z,98087.76
2023-05-14T04:35:24.134Z,98085.05
2023-05-14T04:37:52.917Z,98083.61
2023-05-14T04:40:20.809Z,98080.96
2023-05-14T04:42:48.936Z,98080.52
2023-05-14T04:45:17.420Z,98079.08
2023-05-14T04:47:46.349Z,98079.25
2023-05-14T04:50:14.788Z,98075.80
2023-05-14T04:52:42.567Z,98076.29
2023-05-14T04:55:10.839Z,98078.00
2023-05-14T04:57:38.616Z,98076.08
2023-05-14T05:00:07.576Z,98071.27
2023-05-14T05:02:36.090Z,98068.35
2023-05-14T05:05:04.315Z,98064.19
2023-05-14T05:07:32.428Z,98058.44
2023-05-14T05:10:00.796Z,98054.85
2023-05-14T05:12:30.391Z,98056.02
2023-05-14T05:14:58.575Z,98048.55
2023-05-14T05:17:26.541Z,98047.14
2023-05-14T05:19:54.407Z,98047.06
2023-05-14T05:22:22.773Z,98045.41
2023-05-14T05:24:50.725Z,98039.80
2023-05-14T05:27:18.625Z,98041.30
2023-05-14T05:29:46.488Z,98040.55
2023-05-14T05:32:14.342Z,98041.38
2023-05-14T05:34:42.510Z,98036.41
2023-05-14T05:37:12.869Z,98028.40
2023-05-14T05:39:41.039Z,98026.77
2023-05-14T05:42:09.197Z,98022.92
2023-05-14T05:44:37.276Z,98020.89
2023-05-14T05:47:06.088Z,98018.13
2023-05-14T05:49:34.159Z,98011.67
2023-05-14T05:52:02.374Z,98005.98
2023-05-14T05:54:32.531Z,98007.25
2023-05-14T05:57:00.990Z,98004.23
2023-05-14T05:59:28.976Z,97998.80
2023-05-14T06:01:57.068Z,97996.43
2023-05-14T06:04:24.930Z,97994.10
2023-05-14T06:06:52.729Z,97992.02
2023-05-14T06:09:21.031Z,97999.38
2023-05-14T06:11:48.862Z,98001.80
2023-05-14T06:14:16.870Z,98000.77
2023-05-14T06:16:44.735Z,98002.55
2023-05-14T06:19:12.815Z,97997.95
2023-05-14T06:21:40.969Z,97996.73
2023-05-14T06:24:09.145Z,97995.42
2023-05-14T06:26:37.007Z,97995.16
2023-05-14T06:29:04.933Z,97998.92
2023-05-14T06:31:32.972Z,97999.34
2023-05-14T06:34:01.120Z,97996.43
2023-05-14T06:36:29.089Z,97991.59
2023-05-14T06:38:57.067Z,97989.48
2023-05-14T06:41:25.028Z,97991.27
2023-05-14T06:43:52.887Z,97990.63
2023-05-14T06:46:21.060Z,97991.39
2023-05-14T06:48:49.119Z,97990.12
2023-05-14T06:51:17.045Z,97984.11
2023-05-14T06:53:45.173Z,97983.06
2023-05-14T06:56:14.905Z,97981.52
2023-05-14T06:58:42.958Z,97977.02
2023-05-14T07:01:10.943Z,97978.91
2023-05-14T07:03:39.515Z,97971.61
2023-05-14T07:06:07.409Z,97972.59
2023-05-14T07:08:36.276Z,97972.66
2023-05-14T07:11:04.433Z,97971.08
2023-05-14T07:13:32.216Z,97962.85
2023-05-14T07:16:00.088Z,97954.84
2023-05-14T07:18:28.309Z,97953.80
2023-05-14T07:20:56.214Z,97952.19
2023-05-14T07:23:24.096Z,97947.46
2023-05-14T07:25:52.042Z,97944.80
2023-05-14T07:28:19.895Z,97940.91
2023-05-14T07:30:47.747Z,97943.05
2023-05-14T07:33:15.515Z,97941.24
2023-05-14T07:35:43.430Z,97942.68
2023-05-14T07:38:11.472Z,97945.33
2023-05-14T07:40:39.444Z,97945.27
2023-05-14T07:43:07.456Z,97944.55
2023-05-14T07:45:36.533Z,97946.75
2023-05-14T07:48:04.587Z,97942.29
2023-05-14T07:50:32.980Z,97948.94
2023-05-14T07:53:01.018Z,97947.56
2023-05-14T07:55:28.830Z,97945.91
2023-05-14T07:57:56.854Z,97946.39
2023-05-14T08:00:25.182Z,97945.92
2023-05-14T08:02:53.574Z,97945.83
2023-05-14T08:05:21.780Z,97943.84
2023-05-14T08:07:49.816Z,97933.41
2023-05-14T08:10:17.619Z,97938.77
2023-05-14T08:12:45.386Z,97936.51
2023-05-14T08:15:13.649Z,97928.45
2023-05-14T08:17:41.655Z,97923.23
2023-05-14T08:20:12.078Z,97915.95
2023-05-14T08:22:40.137Z,97913.02
2023-05-14T08:25:08.435Z,97907.57
2023-05-14T08:27:37.066Z,97901.55
2023-05-14T08:30:06.597Z,97890.09
2023-05-14T08:32:34.480Z,97887.70
2023-05-14T08:35:02.654Z,97893.14
2023-05-14T08:37:30.697Z,97895.48
2023-05-14T08:39:58.581Z,97897.97
2023-05-14T08:42:27.157Z,97897.45
2023-05-14T08:45:05.054Z,97896.00
2023-05-14T08:47:33.778Z,97894.38
2023-05-14T08:50:02.160Z,97893.64
2023-05-14T08:52:30.887Z,97888.28
2023-05-14T08:55:05.712Z,97880.85
2023-05-14T08:57:34.471Z,97875.56
2023-05-14T09:00:08.670Z,97874.48
2023-05-14T09:02:36.865Z,97869.36
2023-05-14T09:05:05.146Z,97867.30
2023-05-14T09:07:33.857Z,97871.66
2023-05-14T09:10:02.917Z,97871.75
2023-05-14T09:12:31.368Z,97867.79
2023-05-14T09:14:59.309Z,97860.39
2023-05-14T09:17:28.110Z,97863.48
2023-05-14T09:19:56.155Z,97864.23
2023-05-14T09:22:24.228Z,97859.70
2023-05-14T09:25:04.278Z,97855.16
2023-05-14T09:27:32.862Z,97854.19
2023-05-14T09:30:07.381Z,97850.34
2023-05-14T09:32:36.202Z,97849.80
2023-05-14T09:35:24.362Z,97847.20
2023-05-14T09:37:53.413Z,97846.97
2023-05-14T09:40:23.290Z,97854.28
2023-05-14T09:42:52.003Z,97849.08
2023-05-14T09:45:19.872Z,97846.55
2023-05-14T09:47:48.201Z,97844.86
2023-05-14T09:50:16.196Z,97833.91
2023-05-14T09:52:44.181Z,97833.05
2023-05-14T09:55:12.152Z,97829.21
2023-05-14T09:57:40.136Z,97830.80
2023-05-14T10:00:09.280Z,97831.67
2023-05-14T10:02:38.702Z,97828.43
2023-05-14T10:05:07.780Z,97824.59
2023-05-14T10:07:38.855Z,97818.86
2023-05-14T10:10:08.166Z,97814.02
2023-05-14T10:12:38.896Z,97815.36
2023-05-14T10:15:14.218Z,97809.48
2023-05-14T10:17:45.838Z,97805.20
2023-05-14T10:20:15.691Z,97801.20
2023-05-14T10:22:43.437Z,97794.06
2023-05-14T10:25:11.533Z,97795.63
2023-05-14T10:27:40.510Z,97786.64
2023-05-14T10:30:12.907Z,97784.40
2023-05-14T10:32:42.178Z,97782.36
2023-05-14T10:35:22.881Z,97775.74
2023-05-14T10:37:51.633Z,97767.85
2023-05-14T10:40:19.670Z,97767.45
2023-05-14T10:42:48.708Z,97768.23
2023-05-14T10:45:16.906Z,97766.96
2023-05-14T10:47:46.543Z,97763.45
2023-05-14T10:50:15.377Z,97757.77
2023-05-14T10:52:44.037Z,97753.45
2023-05-14T10:55:16.159Z,97745.92
2023-05-14T10:57:45.408Z,97745.94
2023-05-14T11:00:14.795Z,97740.85
2023-05-14T11:02:44.634Z,97739.84
2023-05-14T11:05:17.530Z,97740.83
2023-05-14T11:07:47.337Z,97734.70
2023-05-14T11:10:19.230Z,97730.17
2023-05-14T11:12:48.299Z,97731.36
2023-05-14T11:15:17.191Z,97732.23
2023-05-14T11:17:46.008Z,97730.51
2023-05-14T11:20:15.081Z,97727.73
2023-05-14T11:22:43.376Z,97724.31
2023-05-14T11:25:14.837Z,97728.94
2023-05-14T11:27:43.985Z,97721.38
2023-05-14T11:30:16.492Z,97720.77
2023-05-14T11:32:48.590Z,97717.77
2023-05-14T11:35:17.517Z,97715.87
2023-05-14T11:37:52.602Z,97716.80
2023-05-14T11:40:20.774Z,97717.70
2023-05-14T11:42:51.244Z,97717.62
2023-05-14T11:45:30.076Z,97717.26
2023-05-14T11:47:58.285Z,97714.24
2023-05-14T11:50:26.643Z,97711.33
2023-05-14T11:52:58.413Z,97706.35
2023-05-14T11:55:26.327Z,97714.43
2023-05-14T11:57:54.371Z,97711.54
2023-05-14T12:00:24.161Z,97713.34
2023-05-14T12:02:52.560Z,97717.06
2023-05-14T12:05:20.564Z,97711.82
2023-05-14T12:07:48.437Z,97710.63
2023-05-14T12:10:16.823Z,97709.23
2023-05-14T12:12:48.367Z,97705.13
2023-05-14T12:15:20.758Z,97705.39
2023-05-14T12:17:52.070Z,97697.30
2023-05-14T12:20:20.256Z,97700.64
2023-05-14T12:22:48.233Z,97698.78
2023-05-14T12:25:16.034Z,97697.23
2023-05-14T12:27:45.186Z,97696.48
2023-05-14T12:30:21.328Z,97693.90
2023-05-14T12:32:52.738Z,97698.23
2023-05-14T12:35:21.602Z,97700.98
2023-05-14T12:37:49.871Z,97701.19
2023-05-14T12:40:17.947Z,97696.48
2023-05-14T12:42:45.777Z,97693.84
2023-05-14T12:45:13.773Z,97700.06
2023-05-14T12:47:41.765Z,97700.44
2023-05-14T12:50:09.876Z,97693.69
2023-05-14T12:52:39.705Z,97690.35
2023-05-14T12:55:09.507Z,97684.96
2023-05-14T12:57:39.310Z,97683.16
2023-05-14T13:00:08.645Z,97690.45
2023-05-14T13:02:42.703Z,97697.29
2023-05-14T13:05:12.378Z,97702.22
2023-05-14T13:07:40.792Z,97702.95
2023-05-14T13:10:09.030Z,97704.13
2023-05-14T13:12:37.083Z,97702.16
2023-05-14T13:15:05.526Z,97696.76
2023-05-14T13:17:33.573Z,97696.69
2023-05-14T13:20:01.700Z,97696.48
2023-05-14T13:22:29.783Z,97692.48
2023-05-14T13:24:57.869Z,97690.42
2023-05-14T13:27:26.226Z,97686.96
2023-05-14T13:29:54.142Z,97683.15
2023-05-14T13:32:22.377Z,97675.89
2023-05-14T13:34:50.532Z,97669.14
2023-05-14T13:37:18.403Z,97662.40
2023-05-14T13:39:46.164Z,97660.02
2023-05-14T13:42:14.029Z,97650.73
2023-05-14T13:44:42.235Z,97643.95
2023-05-14T13:47:10.591Z,97639.40
2023-05-14T13:49:38.471Z,97641.36
2023-05-14T13:52:06.776Z,97634.02
2023-05-14T13:54:34.646Z,97623.86
2023-05-14T13:57:02.489Z,97618.14
2023-05-14T13:59:30.521Z,97615.64
2023-05-14T14:01:58.403Z,97607.14
2023-05-14T14:04:29.247Z,97604.64
2023-05-14T14:06:57.302Z,97603.63
2023-05-14T14:09:25.467Z,97597.45
2023-05-14T14:11:53.385Z,97590.73
2023-05-14T14:14:21.458Z,97577.65
2023-05-14T14:16:49.292Z,97569.21
2023-05-14T14:19:18.526Z,97566.77
2023-05-14T14:21:46.767Z,97566.63
2023-05-14T14:24:15.151Z,97566.19
2023-05-14T14:26:42.899Z,97566.58
2023-05-14T14:29:10.649Z,97562.08
2023-05-14T14:31:38.642Z,97550.73
2023-05-14T14:34:06.634Z,97555.59
2023-05-14T14:36:37.226Z,97555.02
2023-05-14T14:39:05.120Z,97556.20
2023-05-14T14:41:32.954Z,97556.13
2023-05-14T14:44:02.893Z,97556.09
2023-05-14T14:46:30.958Z,97555.53
2023-05-14T14:48:58.969Z,97558.06
2023-05-14T14:51:27.380Z,97558.02
2023-05-14T14:53:55.302Z,97559.65
2023-05-14T14:56:23.241Z,97557.86
2023-05-14T14:58:51.091Z,97554.52
2023-05-14T15:01:19.003Z,97558.24
2023-05-14T15:03:48.428Z,97559.83
2023-05-14T15:06:16.521Z,97568.19
2023-05-14T15:08:44.285Z,97569.21
2023-05-14T15:11:12.116Z,97564.69
2023-05-14T15:13:41.836Z,97555.91
2023-05-14T15:16:09.876Z,97548.10
2023-05-14T15:18:37.877Z,97531.63
2023-05-14T15:21:05.983Z,97519.17
2023-05-14T15:23:33.816Z,97516.77
2023-05-14T15:26:02.110Z,97519.60
2023-05-14T15:28:29.981Z,97524.20
2023-05-14T15:30:58.051Z,97526.83
2023-05-14T15:33:26.128Z,97534.08
2023-05-14T15:35:53.983Z,97531.73
2023-05-14T15:38:21.980Z,97528.15
2023-05-14T15:40:50.946Z,97523.57
2023-05-14T15:43:18.853Z,97515.86
2023-05-14T15:45:46.964Z,97507.56
2023-05-14T15:48:14.894Z,97503.80
2023-05-14T15:50:43.317Z,97516.58
2023-05-14T15:53:11.297Z,97522.40
2023-05-14T15:55:39.116Z,97517.55
2023-05-14T15:58:07.136Z,97510.35
2023-05-14T16:00:35.106Z,97502.29
2023-05-14T16:03:03.336Z,97490.33
2023-05-14T16:05:31.347Z,97473.41
2023-05-14T16:07:59.315Z,97471.77
2023-05-14T16:10:27.289Z,97473.96
2023-05-14T16:12:55.615Z,97483.21
2023-05-14T16:15:23.510Z,97495.04
2023-05-14T16:17:51.436Z,97495.61
2023-05-14T16:20:19.491Z,97495.57
2023-05-14T16:22:47.355Z,97494.23
2023-05-14T16:25:15.412Z,97495.79
2023-05-14T16:27:43.366Z,97489.58
2023-05-14T16:30:11.503Z,97491.34
2023-05-14T16:32:41.971Z,97488.95
2023-05-14T16:35:10.141Z,97487.89
2023-05-14T16:37:37.865Z,97494.85
2023-05-14T16:40:06.277Z,97498.43
2023-05-14T16:42:34.173Z,97495.40
2023-05-14T16:45:02.134Z,97496.59
2023-05-14T16:47:29.946Z,97501.58
2023-05-14T16:49:58.146Z,97506.11
2023-05-14T16:52:26.235Z,97507.52
2023-05-14T16:54:54.288Z,97510.81
2023-05-14T16:57:22.248Z,97513.63
2023-05-14T16:59:50.219Z,97510.86
2023-05-14T17:02:18.089Z,97506.14
2023-05-14T17:04:46.362Z,97505.05
2023-05-14T17:07:14.640Z,97505.32
2023-05-14T17:09:42.593Z,97505.30
2023-05-14T17:12:11.274Z,97499.73
2023-05-14T17:14:39.255Z,97490.50
2023-05-14T17:17:07.428Z,97491.66
2023-05-14T17:19:35.341Z,97486.44
2023-05-14T17:22:06.073Z,97492.93
2023-05-14T17:24:35.531Z,97495.97
2023-05-14T17:27:03.401Z,97493.83
2023-05-14T17:29:31.471Z,97487.48
2023-05-14T17:31:59.454Z,97476.27
2023-05-14T17:34:27.610Z,97472.69
2023-05-14T17:36:55.600Z,97480.48
2023-05-14T17:39:23.451Z,97473.05
2023-05-14T17:41:51.512Z,97473.00
2023-05-14T17:44:19.233Z,97477.24
2023-05-14T17:46:47.914Z,97473.48
2023-05-14T17:49:15.913Z,97470.30
2023-05-14T17:51:43.999Z,97473.20
2023-05-14T17:54:11.736Z,97479.41
2023-05-14T17:56:39.803Z,97481.86
2023-05-14T17:59:07.790Z,97484.36
2023-05-14T18:01:35.781Z,97488.45
2023-05-14T18:04:03.620Z,97492.21
2023-05-14T18:06:31.519Z,97492.92
2023-05-14T18:08:59.388Z,97497.35
2023-05-14T18:11:32.889Z,97498.92
2023-05-14T18:14:00.903Z,97497.16
2023-05-14T18:16:28.859Z,97496.52
2023-05-14T18:18:56.816Z,97499.30
2023-05-14T18:21:24.796Z,97499.06
2023-05-14T18:23:52.531Z,97493.04
2023-05-14T18:26:22.237Z,97492.95
2023-05-14T18:28:50.147Z,97493.91
2023-05-14T18:31:18.548Z,97496.77
2023-05-14T18:33:46.497Z,97497.67
2023-05-14T18:36:14.721Z,97493.08
2023-05-14T18:38:42.582Z,97491.10
2023-05-14T18:41:10.657Z,97492.07
2023-05-14T18:43:38.524Z,97494.21
2023-05-14T18:46:06.433Z,97497.90
2023-05-14T18:48:35.185Z,97498.84
2023-05-14T18:51:03.159Z,97502.52
2023-05-14T18:53:31.515Z,97504.91
2023-05-14T18:56:02.465Z,97495.71
2023-05-14T18:58:30.538Z,97488.33
2023-05-14T19:00:59.210Z,97482.67
2023-05-14T19:03:27.514Z,97482.65
2023-05-14T19:05:55.963Z,97476.93
2023-05-14T19:08:24.050Z,97485.64
2023-05-14T19:10:53.145Z,97484.16
2023-05-14T19:13:21.322Z,97483.54
2023-05-14T19:15:49.272Z,97481.93
2023-05-14T19:18:17.858Z,97474.98
2023-05-14T19:20:46.741Z,97469.70
2023-05-14T19:23:15.242Z,97470.61
2023-05-14T19:25:43.234Z,97467.70
2023-05-14T19:28:11.154Z,97466.23
2023-05-14T19:30:39.235Z,97467.42
2023-05-14T19:33:07.256Z,97468.87
2023-05-14T19:35:35.353Z,97464.02
2023-05-14T19:38:03.442Z,97463.52
2023-05-14T19:40:31.294Z,97455.50
2023-05-14T19:42:59.108Z,97450.85
2023-05-14T19:45:27.061Z,97443.70
2023-05-14T19:47:55.522Z,97442.13
2023-05-14T19:50:23.387Z,97450.56
2023-05-14T19:52:51.356Z,97458.92
2023-05-14T19:55:19.322Z,97458.78
2023-05-14T19:57:47.198Z,97458.79
2023-05-14T20:00:15.207Z,97458.48
2023-05-14T20:02:43.438Z,97452.77
2023-05-14T20:05:11.605Z,97443.55
2023-05-14T20:07:40.598Z,97433.83
2023-05-14T20:10:09.070Z,97429.08
2023-05-14T20:12:36.842Z,97427.11
2023-05-14T20:15:05.332Z,97426.57
2023-05-14T20:17:33.509Z,97425.23
2023-05-14T20:20:01.680Z,97427.70
2023-05-14T20:22:29.631Z,97418.12
2023-05-14T20:24:57.706Z,97411.33
2023-05-14T20:27:25.810Z,97405.09
2023-05-14T20:29:54.392Z,97404.13
2023-05-14T20:32:25.155Z,97395.94
2023-05-14T20:34:53.544Z,97395.48
2023-05-14T20:37:21.675Z,97394.20
2023-05-14T20:39:49.876Z,97394.80
2023-05-14T20:42:17.782Z,97395.54
2023-05-14T20:44:48.517Z,97393.22
2023-05-14T20:47:20.587Z,97398.00
2023-05-14T20:49:48.955Z,97401.14
2023-05-14T20:52:17.568Z,97393.39
2023-05-14T20:54:46.136Z,97382.72
2023-05-14T20:57:15.965Z,97372.44
2023-05-14T20:59:43.896Z,97371.00
2023-05-14T21:02:12.194Z,97372.75
2023-05-14T21:04:40.504Z,97371.58
2023-05-14T21:07:08.628Z,97383.50
2023-05-14T21:09:36.490Z,97391.86
2023-05-14T21:12:04.631Z,97383.37
2023-05-14T21:14:32.656Z,97374.61
2023-05-14T21:17:00.496Z,97375.81
2023-05-14T21:19:28.228Z,97378.16
2023-05-14T21:21:56.228Z,97387.92
2023-05-14T21:24:24.094Z,97381.94
2023-05-14T21:26:53.498Z,97382.30
2023-05-14T21:29:21.564Z,97377.19
2023-05-14T21:31:50.403Z,97362.32
2023-05-14T21:34:18.316Z,97357.18
2023-05-14T21:36:46.732Z,97361.73
2023-05-14T21:39:14.778Z,97373.26
2023-05-14T21:41:42.560Z,97382.50
2023-05-14T21:44:10.705Z,97386.38
2023-05-14T21:46:38.693Z,97391.70
2023-05-14T21:49:06.564Z,97392.77
2023-05-14T21:51:34.525Z,97382.94
2023-05-14T21:54:02.273Z,97376.49
2023-05-14T21:56:30.256Z,97369.34
2023-05-14T21:58:58.321Z,97374.05
2023-05-14T22:01:26.399Z,97375.29
2023-05-14T22:03:55.749Z,97373.39
2023-05-14T22:06:25.807Z,97374.95
2023-05-14T22:08:53.768Z,97366.48
2023-05-14T22:11:21.944Z,97355.52
2023-05-14T22:13:49.809Z,97354.21
2023-05-14T22:16:17.702Z,97360.52
2023-05-14T22:18:45.713Z,97357.28
2023-05-14T22:21:13.748Z,97354.24
2023-05-14T22:23:41.817Z,97352.04
2023-05-14T22:26:09.975Z,97350.30
2023-05-14T22:28:42.875Z,97349.00
2023-05-14T22:31:11.298Z,97350.14
2023-05-14T22:33:39.406Z,97351.48
2023-05-14T22:36:07.563Z,97350.64
2023-05-14T22:38:35.572Z,97351.34
2023-05-14T22:41:03.400Z,97353.27
2023-05-14T22:43:31.265Z,97346.56
2023-05-14T22:45:59.347Z,97342.55
2023-05-14T22:48:27.300Z,97340.31
2023-05-14T22:50:55.152Z,97338.31
2023-05-14T22:53:24.388Z,97338.59
2023-05-14T22:55:53.057Z,97336.05
2023-05-14T22:58:21.028Z,97333.10
2023-05-14T23:00:49.098Z,97337.45
2023-05-14T23:03:17.165Z,97335.08
2023-05-14T23:05:45.335Z,97329.27
2023-05-14T23:08:13.403Z,97322.45
2023-05-14T23:10:41.210Z,97319.52
2023-05-14T23:13:09.018Z,97316.90
2023-05-14T23:15:37.314Z,97311.03
2023-05-14T23:18:05.389Z,97302.62
2023-05-14T23:20:33.344Z,97297.57
2023-05-14T23:23:01.138Z,97296.37
2023-05-14T23:25:29.059Z,97291.90
2023-05-14T23:27:57.075Z,97288.48
2023-05-14T23:30:24.932Z,97289.09
2023-05-14T23:32:52.843Z,97287.83
2023-05-14T23:35:20.854Z,97289.02
2023-05-14T23:37:50.994Z,97286.42
2023-05-14T23:40:18.843Z,97286.88
2023-05-14T23:42:46.610Z,97285.58
2023-05-14T23:45:14.580Z,97283.90
2023-05-14T23:47:42.787Z,97276.22
2023-05-14T23:50:10.915Z,97272.39
2023-05-14T23:52:38.795Z,97271.70
2023-05-14T23:55:07.163Z,97271.48
2023-05-14T23:57:35.642Z,97269.55
